sensor_id;sensor_type;location;lat;lon;timestamp;P1;durP1;ratioP1;P2;durP2;ratioP2
17528;SDS011;8882;53.192;8.184;2024-03-23T00:53:27;11.63;;;3.37;;
17528;SDS011;8882;53.192;8.184;2024-03-23T00:55:53;16.07;;;3.30;;
17528;SDS011;8882;53.192;8.184;2024-03-23T00:58:19;17.87;;;3.50;;
17528;SDS011;8882;53.192;8.184;2024-03-23T01:00:44;8.63;;;2.43;;
17528;SDS011;8882;53.192;8.184;2024-03-23T01:03:10;9.57;;;2.47;;
17528;SDS011;8882;53.192;8.184;2024-03-23T01:05:35;14.07;;;2.80;;
17528;SDS011;8882;53.192;8.184;2024-03-23T01:08:01;12.67;;;3.13;;
17528;SDS011;8882;53.192;8.184;2024-03-23T01:10:27;11.90;;;2.40;;
17528;SDS011;8882;53.192;8.184;2024-03-23T01:12:52;10.50;;;3.13;;
17528;SDS011;8882;53.192;8.184;2024-03-23T01:15:18;13.33;;;2.57;;
17528;SDS011;8882;53.192;8.184;2024-03-23T01:17:43;9.87;;;2.87;;
17528;SDS011;8882;53.192;8.184;2024-03-23T01:20:09;9.20;;;3.40;;
17528;SDS011;8882;53.192;8.184;2024-03-23T01:22:35;11.47;;;2.97;;
17528;SDS011;8882;53.192;8.184;2024-03-23T01:25:00;8.07;;;2.80;;
17528;SDS011;8882;53.192;8.184;2024-03-23T01:27:26;12.50;;;3.13;;
17528;SDS011;8882;53.192;8.184;2024-03-23T01:29:51;10.57;;;2.93;;
17528;SDS011;8882;53.192;8.184;2024-03-23T01:32:20;11.97;;;2.87;;
17528;SDS011;8882;53.192;8.184;2024-03-23T01:34:45;13.10;;;2.70;;
17528;SDS011;8882;53.192;8.184;2024-03-23T01:37:11;8.33;;;2.50;;
17528;SDS011;8882;53.192;8.184;2024-03-23T01:39:36;10.83;;;2.90;;
17528;SDS011;8882;53.192;8.184;2024-03-23T01:42:02;14.43;;;3.13;;
17528;SDS011;8882;53.192;8.184;2024-03-23T01:44:28;10.27;;;2.53;;
17528;SDS011;8882;53.192;8.184;2024-03-23T01:46:53;11.07;;;2.70;;
17528;SDS011;8882;53.192;8.184;2024-03-23T01:49:19;12.63;;;2.83;;
17528;SDS011;8882;53.192;8.184;2024-03-23T01:51:45;10.33;;;2.60;;
17528;SDS011;8882;53.192;8.184;2024-03-23T01:54:11;10.93;;;2.63;;
17528;SDS011;8882;53.192;8.184;2024-03-23T01:56:37;14.73;;;3.10;;
17528;SDS011;8882;53.192;8.184;2024-03-23T01:59:03;14.37;;;3.10;;
17528;SDS011;8882;53.192;8.184;2024-03-23T02:01:29;13.00;;;3.03;;
17528;SDS011;8882;53.192;8.184;2024-03-23T02:03:55;11.20;;;2.33;;
17528;SDS011;8882;53.192;8.184;2024-03-23T02:06:21;9.87;;;2.70;;
17528;SDS011;8882;53.192;8.184;2024-03-23T02:08:47;16.17;;;4.07;;
17528;SDS011;8882;53.192;8.184;2024-03-23T02:11:13;9.70;;;2.90;;
17528;SDS011;8882;53.192;8.184;2024-03-23T02:13:39;10.10;;;3.20;;
17528;SDS011;8882;53.192;8.184;2024-03-23T02:16:04;13.57;;;3.37;;
17528;SDS011;8882;53.192;8.184;2024-03-23T02:18:30;12.23;;;2.87;;
17528;SDS011;8882;53.192;8.184;2024-03-23T02:20:56;10.53;;;2.40;;
17528;SDS011;8882;53.192;8.184;2024-03-23T02:23:21;15.43;;;3.13;;
17528;SDS011;8882;53.192;8.184;2024-03-23T02:25:49;10.53;;;2.70;;
17528;SDS011;8882;53.192;8.184;2024-03-23T02:28:14;13.37;;;2.93;;
17528;SDS011;8882;53.192;8.184;2024-03-23T02:30:40;13.23;;;3.13;;
17528;SDS011;8882;53.192;8.184;2024-03-23T02:33:05;18.47;;;3.60;;
17528;SDS011;8882;53.192;8.184;2024-03-23T02:35:31;19.87;;;3.57;;
17528;SDS011;8882;53.192;8.184;2024-03-23T02:37:57;16.17;;;3.33;;
17528;SDS011;8882;53.192;8.184;2024-03-23T02:40:23;10.23;;;2.83;;
17528;SDS011;8882;53.192;8.184;2024-03-23T02:42:49;15.33;;;3.30;;
17528;SDS011;8882;53.192;8.184;2024-03-23T02:45:15;17.37;;;3.70;;
17528;SDS011;8882;53.192;8.184;2024-03-23T02:47:40;10.70;;;3.10;;
17528;SDS011;8882;53.192;8.184;2024-03-23T02:50:06;10.53;;;2.90;;
17528;SDS011;8882;53.192;8.184;2024-03-23T02:52:32;15.90;;;2.97;;
17528;SDS011;8882;53.192;8.184;2024-03-23T02:54:57;15.53;;;3.23;;
17528;SDS011;8882;53.192;8.184;2024-03-23T02:57:23;11.13;;;2.80;;
17528;SDS011;8882;53.192;8.184;2024-03-23T02:59:49;12.80;;;3.50;;
17528;SDS011;8882;53.192;8.184;2024-03-23T03:02:14;15.40;;;2.63;;
17528;SDS011;8882;53.192;8.184;2024-03-23T03:04:40;16.90;;;3.60;;
17528;SDS011;8882;53.192;8.184;2024-03-23T03:07:06;17.77;;;2.90;;
17528;SDS011;8882;53.192;8.184;2024-03-23T03:09:31;12.80;;;2.77;;
17528;SDS011;8882;53.192;8.184;2024-03-23T03:11:58;14.50;;;3.70;;
17528;SDS011;8882;53.192;8.184;2024-03-23T03:14:23;14.47;;;3.60;;
17528;SDS011;8882;53.192;8.184;2024-03-23T03:16:49;15.13;;;3.87;;
17528;SDS011;8882;53.192;8.184;2024-03-23T03:19:14;9.10;;;2.97;;
17528;SDS011;8882;53.192;8.184;2024-03-23T03:21:41;11.07;;;2.87;;
17528;SDS011;8882;53.192;8.184;2024-03-23T03:24:07;13.30;;;3.10;;
17528;SDS011;8882;53.192;8.184;2024-03-23T03:26:32;15.57;;;2.90;;
17528;SDS011;8882;53.192;8.184;2024-03-23T03:28:58;14.33;;;3.13;;
17528;SDS011;8882;53.192;8.184;2024-03-23T03:31:23;15.17;;;3.30;;
17528;SDS011;8882;53.192;8.184;2024-03-23T03:33:49;16.73;;;3.13;;
17528;SDS011;8882;53.192;8.184;2024-03-23T03:36:16;13.17;;;3.53;;
17528;SDS011;8882;53.192;8.184;2024-03-23T03:38:41;9.83;;;2.90;;
17528;SDS011;8882;53.192;8.184;2024-03-23T03:41:07;15.97;;;3.63;;
17528;SDS011;8882;53.192;8.184;2024-03-23T03:43:32;13.37;;;3.07;;
17528;SDS011;8882;53.192;8.184;2024-03-23T03:45:58;14.67;;;3.47;;
17528;SDS011;8882;53.192;8.184;2024-03-23T03:48:25;12.10;;;2.70;;
17528;SDS011;8882;53.192;8.184;2024-03-23T03:50:51;17.93;;;3.50;;
17528;SDS011;8882;53.192;8.184;2024-03-23T03:53:18;13.37;;;3.23;;
17528;SDS011;8882;53.192;8.184;2024-03-23T03:55:44;15.37;;;3.13;;
17528;SDS011;8882;53.192;8.184;2024-03-23T03:58:09;13.20;;;2.87;;
17528;SDS011;8882;53.192;8.184;2024-03-23T04:00:35;16.43;;;3.47;;
17528;SDS011;8882;53.192;8.184;2024-03-23T04:03:00;15.30;;;2.77;;
17528;SDS011;8882;53.192;8.184;2024-03-23T04:05:26;16.10;;;3.13;;
17528;SDS011;8882;53.192;8.184;2024-03-23T04:07:52;11.23;;;2.77;;
17528;SDS011;8882;53.192;8.184;2024-03-23T04:10:17;12.77;;;3.00;;
17528;SDS011;8882;53.192;8.184;2024-03-23T04:12:43;18.13;;;5.17;;
17528;SDS011;8882;53.192;8.184;2024-03-23T04:15:09;13.80;;;3.10;;
17528;SDS011;8882;53.192;8.184;2024-03-23T04:17:35;13.53;;;3.17;;
17528;SDS011;8882;53.192;8.184;2024-03-23T04:20:01;16.03;;;3.73;;
17528;SDS011;8882;53.192;8.184;2024-03-23T04:22:28;14.17;;;2.80;;
17528;SDS011;8882;53.192;8.184;2024-03-23T04:24:54;15.53;;;2.93;;
17528;SDS011;8882;53.192;8.184;2024-03-23T04:27:22;15.40;;;3.20;;
17528;SDS011;8882;53.192;8.184;2024-03-23T04:29:48;12.20;;;2.70;;
17528;SDS011;8882;53.192;8.184;2024-03-23T04:32:20;16.47;;;3.20;;
17528;SDS011;8882;53.192;8.184;2024-03-23T04:34:46;14.60;;;3.10;;
17528;SDS011;8882;53.192;8.184;2024-03-23T04:37:11;8.93;;;3.03;;
17528;SDS011;8882;53.192;8.184;2024-03-23T04:39:37;11.63;;;3.13;;
17528;SDS011;8882;53.192;8.184;2024-03-23T04:42:03;12.67;;;2.87;;
17528;SDS011;8882;53.192;8.184;2024-03-23T04:44:29;17.57;;;3.53;;
17528;SDS011;8882;53.192;8.184;2024-03-23T04:46:56;15.67;;;3.23;;
17528;SDS011;8882;53.192;8.184;2024-03-23T04:49:21;15.40;;;3.47;;
17528;SDS011;8882;53.192;8.184;2024-03-23T04:51:47;16.73;;;3.40;;
17528;SDS011;8882;53.192;8.184;2024-03-23T04:54:12;13.60;;;3.30;;
17528;SDS011;8882;53.192;8.184;2024-03-23T04:56:38;11.17;;;3.57;;
17528;SDS011;8882;53.192;8.184;2024-03-23T04:59:04;15.80;;;3.13;;
17528;SDS011;8882;53.192;8.184;2024-03-23T05:01:30;11.00;;;2.97;;
17528;SDS011;8882;53.192;8.184;2024-03-23T05:03:58;13.47;;;3.33;;
17528;SDS011;8882;53.192;8.184;2024-03-23T05:06:24;18.50;;;4.10;;
17528;SDS011;8882;53.192;8.184;2024-03-23T05:08:50;15.33;;;3.40;;
17528;SDS011;8882;53.192;8.184;2024-03-23T05:11:16;13.80;;;3.67;;
17528;SDS011;8882;53.192;8.184;2024-03-23T05:13:42;11.87;;;2.77;;
17528;SDS011;8882;53.192;8.184;2024-03-23T05:16:08;18.13;;;3.83;;
17528;SDS011;8882;53.192;8.184;2024-03-23T05:18:34;14.00;;;3.10;;
17528;SDS011;8882;53.192;8.184;2024-03-23T05:21:00;15.70;;;4.17;;
17528;SDS011;8882;53.192;8.184;2024-03-23T05:23:26;12.27;;;3.33;;
17528;SDS011;8882;53.192;8.184;2024-03-23T05:25:53;10.57;;;3.90;;
17528;SDS011;8882;53.192;8.184;2024-03-23T05:28:19;15.50;;;3.67;;
17528;SDS011;8882;53.192;8.184;2024-03-23T05:30:52;17.30;;;3.67;;
17528;SDS011;8882;53.192;8.184;2024-03-23T05:33:18;13.23;;;3.57;;
17528;SDS011;8882;53.192;8.184;2024-03-23T05:35:45;20.03;;;3.27;;
17528;SDS011;8882;53.192;8.184;2024-03-23T05:38:11;9.20;;;2.97;;
17528;SDS011;8882;53.192;8.184;2024-03-23T05:40:36;13.13;;;3.57;;
17528;SDS011;8882;53.192;8.184;2024-03-23T05:43:05;11.93;;;4.30;;
17528;SDS011;8882;53.192;8.184;2024-03-23T05:45:34;16.70;;;3.60;;
17528;SDS011;8882;53.192;8.184;2024-03-23T05:47:59;14.60;;;3.60;;
17528;SDS011;8882;53.192;8.184;2024-03-23T05:50:25;13.40;;;3.57;;
17528;SDS011;8882;53.192;8.184;2024-03-23T05:52:51;15.63;;;3.43;;
17528;SDS011;8882;53.192;8.184;2024-03-23T05:55:16;8.53;;;2.83;;
17528;SDS011;8882;53.192;8.184;2024-03-23T05:57:42;18.23;;;3.23;;
17528;SDS011;8882;53.192;8.184;2024-03-23T06:00:07;17.40;;;3.07;;
17528;SDS011;8882;53.192;8.184;2024-03-23T06:02:44;14.63;;;3.33;;
17528;SDS011;8882;53.192;8.184;2024-03-23T06:05:12;12.13;;;2.70;;
17528;SDS011;8882;53.192;8.184;2024-03-23T06:07:38;14.23;;;3.33;;
17528;SDS011;8882;53.192;8.184;2024-03-23T06:10:04;19.07;;;3.53;;
17528;SDS011;8882;53.192;8.184;2024-03-23T06:12:30;12.80;;;3.10;;
17528;SDS011;8882;53.192;8.184;2024-03-23T06:14:56;15.77;;;3.33;;
17528;SDS011;8882;53.192;8.184;2024-03-23T06:17:22;18.07;;;3.73;;
17528;SDS011;8882;53.192;8.184;2024-03-23T06:19:47;17.20;;;3.67;;
17528;SDS011;8882;53.192;8.184;2024-03-23T06:22:14;10.70;;;3.57;;
17528;SDS011;8882;53.192;8.184;2024-03-23T06:24:39;10.70;;;3.30;;
17528;SDS011;8882;53.192;8.184;2024-03-23T06:27:05;16.47;;;3.27;;
17528;SDS011;8882;53.192;8.184;2024-03-23T06:29:30;16.40;;;4.03;;
17528;SDS011;8882;53.192;8.184;2024-03-23T06:31:56;15.23;;;3.60;;
17528;SDS011;8882;53.192;8.184;2024-03-23T06:34:21;17.97;;;3.43;;
17528;SDS011;8882;53.192;8.184;2024-03-23T06:36:47;11.47;;;3.57;;
17528;SDS011;8882;53.192;8.184;2024-03-23T06:39:14;13.23;;;3.63;;
17528;SDS011;8882;53.192;8.184;2024-03-23T06:41:46;14.10;;;3.37;;
17528;SDS011;8882;53.192;8.184;2024-03-23T06:44:17;13.43;;;3.60;;
17528;SDS011;8882;53.192;8.184;2024-03-23T06:46:43;13.03;;;3.80;;
17528;SDS011;8882;53.192;8.184;2024-03-23T06:49:09;15.27;;;3.93;;
17528;SDS011;8882;53.192;8.184;2024-03-23T06:51:35;13.70;;;3.60;;
17528;SDS011;8882;53.192;8.184;2024-03-23T06:54:00;17.73;;;3.90;;
17528;SDS011;8882;53.192;8.184;2024-03-23T06:56:28;18.33;;;4.15;;
17528;SDS011;8882;53.192;8.184;2024-03-23T06:58:54;14.30;;;3.80;;
17528;SDS011;8882;53.192;8.184;2024-03-23T07:01:19;13.27;;;3.13;;
17528;SDS011;8882;53.192;8.184;2024-03-23T07:03:45;11.63;;;3.20;;
17528;SDS011;8882;53.192;8.184;2024-03-23T07:06:10;11.33;;;3.57;;
17528;SDS011;8882;53.192;8.184;2024-03-23T07:08:36;14.80;;;3.27;;
17528;SDS011;8882;53.192;8.184;2024-03-23T07:11:01;13.93;;;3.40;;
17528;SDS011;8882;53.192;8.184;2024-03-23T07:13:27;11.50;;;2.80;;
17528;SDS011;8882;53.192;8.184;2024-03-23T07:15:53;13.07;;;3.17;;
17528;SDS011;8882;53.192;8.184;2024-03-23T07:18:20;9.37;;;3.30;;
17528;SDS011;8882;53.192;8.184;2024-03-23T07:20:53;10.17;;;2.87;;
17528;SDS011;8882;53.192;8.184;2024-03-23T07:23:23;13.20;;;3.30;;
17528;SDS011;8882;53.192;8.184;2024-03-23T07:25:59;23.90;;;3.63;;
17528;SDS011;8882;53.192;8.184;2024-03-23T07:28:29;15.17;;;2.80;;
17528;SDS011;8882;53.192;8.184;2024-03-23T07:31:07;10.23;;;3.20;;
17528;SDS011;8882;53.192;8.184;2024-03-23T07:33:36;11.27;;;3.00;;
17528;SDS011;8882;53.192;8.184;2024-03-23T07:36:06;13.50;;;3.00;;
17528;SDS011;8882;53.192;8.184;2024-03-23T07:38:31;11.77;;;3.53;;
17528;SDS011;8882;53.192;8.184;2024-03-23T07:43:29;10.70;;;2.43;;
17528;SDS011;8882;53.192;8.184;2024-03-23T07:45:54;9.30;;;2.10;;
17528;SDS011;8882;53.192;8.184;2024-03-23T07:48:21;8.67;;;2.20;;
17528;SDS011;8882;53.192;8.184;2024-03-23T07:53:35;10.97;;;2.37;;
17528;SDS011;8882;53.192;8.184;2024-03-23T07:56:03;10.67;;;2.60;;
17528;SDS011;8882;53.192;8.184;2024-03-23T07:58:33;8.27;;;3.00;;
17528;SDS011;8882;53.192;8.184;2024-03-23T08:01:05;9.00;;;2.27;;
17528;SDS011;8882;53.192;8.184;2024-03-23T08:03:35;12.13;;;2.47;;
17528;SDS011;8882;53.192;8.184;2024-03-23T08:06:17;14.43;;;2.97;;
17528;SDS011;8882;53.192;8.184;2024-03-23T08:08:48;10.77;;;2.73;;
17528;SDS011;8882;53.192;8.184;2024-03-23T08:11:16;11.50;;;2.33;;
17528;SDS011;8882;53.192;8.184;2024-03-23T08:13:42;8.53;;;2.30;;
17528;SDS011;8882;53.192;8.184;2024-03-23T08:16:09;7.97;;;2.20;;
17528;SDS011;8882;53.192;8.184;2024-03-23T08:18:35;15.43;;;2.73;;
17528;SDS011;8882;53.192;8.184;2024-03-23T08:21:04;9.43;;;2.90;;
17528;SDS011;8882;53.192;8.184;2024-03-23T08:23:31;6.10;;;1.70;;
17528;SDS011;8882;53.192;8.184;2024-03-23T08:26:04;6.50;;;1.90;;
17528;SDS011;8882;53.192;8.184;2024-03-23T08:28:35;10.80;;;2.40;;
17528;SDS011;8882;53.192;8.184;2024-03-23T08:31:01;8.00;;;1.70;;
17528;SDS011;8882;53.192;8.184;2024-03-23T08:33:30;8.67;;;2.10;;
17528;SDS011;8882;53.192;8.184;2024-03-23T08:35:56;7.17;;;1.73;;
17528;SDS011;8882;53.192;8.184;2024-03-23T08:38:26;6.17;;;1.93;;
17528;SDS011;8882;53.192;8.184;2024-03-23T08:40:59;8.93;;;2.40;;
17528;SDS011;8882;53.192;8.184;2024-03-23T08:43:25;7.47;;;2.67;;
17528;SDS011;8882;53.192;8.184;2024-03-23T08:45:51;8.50;;;2.03;;
17528;SDS011;8882;53.192;8.184;2024-03-23T08:48:18;4.73;;;1.53;;
17528;SDS011;8882;53.192;8.184;2024-03-23T08:50:57;5.10;;;1.57;;
17528;SDS011;8882;53.192;8.184;2024-03-23T08:53:24;7.17;;;1.97;;
17528;SDS011;8882;53.192;8.184;2024-03-23T08:55:55;7.10;;;1.80;;
17528;SDS011;8882;53.192;8.184;2024-03-23T08:58:24;3.80;;;1.53;;
17528;SDS011;8882;53.192;8.184;2024-03-23T09:00:51;5.43;;;1.90;;
17528;SDS011;8882;53.192;8.184;2024-03-23T09:03:17;9.57;;;1.90;;
17528;SDS011;8882;53.192;8.184;2024-03-23T09:05:42;5.70;;;1.83;;
17528;SDS011;8882;53.192;8.184;2024-03-23T09:08:08;12.57;;;2.10;;
17528;SDS011;8882;53.192;8.184;2024-03-23T09:10:40;7.13;;;1.77;;
17528;SDS011;8882;53.192;8.184;2024-03-23T09:13:06;6.43;;;2.10;;
17528;SDS011;8882;53.192;8.184;2024-03-23T09:15:36;7.67;;;1.90;;
17528;SDS011;8882;53.192;8.184;2024-03-23T09:18:03;9.20;;;2.33;;
17528;SDS011;8882;53.192;8.184;2024-03-23T09:20:29;7.43;;;1.90;;
17528;SDS011;8882;53.192;8.184;2024-03-23T09:22:58;5.43;;;1.70;;
17528;SDS011;8882;53.192;8.184;2024-03-23T09:25:23;8.53;;;2.07;;
17528;SDS011;8882;53.192;8.184;2024-03-23T09:27:49;5.73;;;1.50;;
17528;SDS011;8882;53.192;8.184;2024-03-23T09:30:15;4.10;;;1.53;;
17528;SDS011;8882;53.192;8.184;2024-03-23T09:32:42;7.90;;;1.50;;
17528;SDS011;8882;53.192;8.184;2024-03-23T09:35:09;6.60;;;2.03;;
17528;SDS011;8882;53.192;8.184;2024-03-23T09:37:35;4.97;;;1.70;;
17528;SDS011;8882;53.192;8.184;2024-03-23T09:40:00;8.70;;;1.97;;
17528;SDS011;8882;53.192;8.184;2024-03-23T09:42:27;8.07;;;1.63;;
17528;SDS011;8882;53.192;8.184;2024-03-23T09:44:52;5.87;;;1.50;;
17528;SDS011;8882;53.192;8.184;2024-03-23T09:47:19;4.63;;;1.60;;
17528;SDS011;8882;53.192;8.184;2024-03-23T09:49:44;4.30;;;1.60;;
17528;SDS011;8882;53.192;8.184;2024-03-23T09:52:10;13.20;;;2.23;;
17528;SDS011;8882;53.192;8.184;2024-03-23T09:54:35;3.40;;;1.60;;
17528;SDS011;8882;53.192;8.184;2024-03-23T09:57:01;8.53;;;2.00;;
17528;SDS011;8882;53.192;8.184;2024-03-23T09:59:27;5.37;;;1.40;;
17528;SDS011;8882;53.192;8.184;2024-03-23T10:01:54;7.77;;;1.90;;
17528;SDS011;8882;53.192;8.184;2024-03-23T10:04:35;3.43;;;1.30;;
17528;SDS011;8882;53.192;8.184;2024-03-23T10:07:11;4.30;;;1.73;;
17528;SDS011;8882;53.192;8.184;2024-03-23T10:09:44;5.50;;;1.57;;
17528;SDS011;8882;53.192;8.184;2024-03-23T10:12:11;4.17;;;1.50;;
17528;SDS011;8882;53.192;8.184;2024-03-23T10:14:38;6.77;;;1.77;;
17528;SDS011;8882;53.192;8.184;2024-03-23T10:17:20;6.20;;;1.63;;
17528;SDS011;8882;53.192;8.184;2024-03-23T10:19:50;4.43;;;1.50;;
17528;SDS011;8882;53.192;8.184;2024-03-23T10:22:17;7.43;;;1.90;;
17528;SDS011;8882;53.192;8.184;2024-03-23T10:24:44;5.50;;;1.80;;
17528;SDS011;8882;53.192;8.184;2024-03-23T10:27:17;4.90;;;1.70;;
17528;SDS011;8882;53.192;8.184;2024-03-23T10:29:45;3.70;;;1.50;;
17528;SDS011;8882;53.192;8.184;2024-03-23T10:32:12;6.47;;;1.50;;
17528;SDS011;8882;53.192;8.184;2024-03-23T10:34:44;5.00;;;1.60;;
17528;SDS011;8882;53.192;8.184;2024-03-23T10:37:10;5.30;;;1.73;;
17528;SDS011;8882;53.192;8.184;2024-03-23T10:39:37;4.27;;;1.70;;
17528;SDS011;8882;53.192;8.184;2024-03-23T10:42:08;5.83;;;1.83;;
17528;SDS011;8882;53.192;8.184;2024-03-23T10:44:35;4.13;;;1.60;;
17528;SDS011;8882;53.192;8.184;2024-03-23T10:47:02;9.60;;;2.00;;
17528;SDS011;8882;53.192;8.184;2024-03-23T10:49:34;5.70;;;1.63;;
17528;SDS011;8882;53.192;8.184;2024-03-23T10:52:01;5.73;;;1.57;;
17528;SDS011;8882;53.192;8.184;2024-03-23T10:54:29;4.50;;;1.57;;
17528;SDS011;8882;53.192;8.184;2024-03-23T10:59:34;3.60;;;1.47;;
17528;SDS011;8882;53.192;8.184;2024-03-23T11:02:02;3.80;;;1.50;;
17528;SDS011;8882;53.192;8.184;2024-03-23T11:09:51;4.00;;;1.40;;
17528;SDS011;8882;53.192;8.184;2024-03-23T11:14:46;3.73;;;1.20;;
17528;SDS011;8882;53.192;8.184;2024-03-23T11:17:17;3.57;;;1.53;;
17528;SDS011;8882;53.192;8.184;2024-03-23T11:19:43;2.37;;;1.47;;
17528;SDS011;8882;53.192;8.184;2024-03-23T11:22:09;3.20;;;2.00;;
17528;SDS011;8882;53.192;8.184;2024-03-23T11:24:35;12.43;;;5.73;;
17528;SDS011;8882;53.192;8.184;2024-03-23T11:27:01;5.23;;;1.77;;
17528;SDS011;8882;53.192;8.184;2024-03-23T11:29:40;9.07;;;1.97;;
17528;SDS011;8882;53.192;8.184;2024-03-23T11:32:07;2.67;;;1.37;;
17528;SDS011;8882;53.192;8.184;2024-03-23T11:34:35;6.93;;;1.63;;
17528;SDS011;8882;53.192;8.184;2024-03-23T11:37:04;4.20;;;1.33;;
17528;SDS011;8882;53.192;8.184;2024-03-23T11:39:31;3.07;;;1.07;;
17528;SDS011;8882;53.192;8.184;2024-03-23T11:41:56;1.47;;;0.90;;
17528;SDS011;8882;53.192;8.184;2024-03-23T11:44:22;1.10;;;0.80;;
17528;SDS011;8882;53.192;8.184;2024-03-23T11:46:50;3.20;;;1.10;;
17528;SDS011;8882;53.192;8.184;2024-03-23T11:49:23;5.03;;;2.10;;
17528;SDS011;8882;53.192;8.184;2024-03-23T11:51:53;2.50;;;2.17;;
17528;SDS011;8882;53.192;8.184;2024-03-23T11:54:20;4.00;;;0.90;;
17528;SDS011;8882;53.192;8.184;2024-03-23T11:56:56;2.73;;;0.90;;
17528;SDS011;8882;53.192;8.184;2024-03-23T11:59:39;1.57;;;1.03;;
17528;SDS011;8882;53.192;8.184;2024-03-23T12:02:09;1.97;;;0.70;;
17528;SDS011;8882;53.192;8.184;2024-03-23T12:04:36;1.70;;;0.90;;
17528;SDS011;8882;53.192;8.184;2024-03-23T12:07:18;1.83;;;0.87;;
17528;SDS011;8882;53.192;8.184;2024-03-23T12:09:45;1.30;;;0.80;;
17528;SDS011;8882;53.192;8.184;2024-03-23T12:12:15;4.13;;;1.20;;
17528;SDS011;8882;53.192;8.184;2024-03-23T12:14:45;2.40;;;1.10;;
17528;SDS011;8882;53.192;8.184;2024-03-23T12:17:26;2.83;;;0.90;;
17528;SDS011;8882;53.192;8.184;2024-03-23T12:19:51;5.70;;;1.13;;
17528;SDS011;8882;53.192;8.184;2024-03-23T12:22:20;1.03;;;1.03;;
17528;SDS011;8882;53.192;8.184;2024-03-23T12:24:46;3.10;;;1.57;;
17528;SDS011;8882;53.192;8.184;2024-03-23T12:27:11;5.00;;;1.70;;
17528;SDS011;8882;53.192;8.184;2024-03-23T12:29:37;3.90;;;1.57;;
17528;SDS011;8882;53.192;8.184;2024-03-23T12:32:04;4.30;;;1.43;;
17528;SDS011;8882;53.192;8.184;2024-03-23T12:34:30;4.30;;;1.73;;
17528;SDS011;8882;53.192;8.184;2024-03-23T12:36:56;5.00;;;1.60;;
17528;SDS011;8882;53.192;8.184;2024-03-23T12:39:21;3.07;;;1.40;;
17528;SDS011;8882;53.192;8.184;2024-03-23T12:41:47;4.77;;;1.20;;
17528;SDS011;8882;53.192;8.184;2024-03-23T12:44:13;3.83;;;1.87;;
17528;SDS011;8882;53.192;8.184;2024-03-23T12:46:40;5.47;;;1.43;;
17528;SDS011;8882;53.192;8.184;2024-03-23T12:49:06;3.17;;;1.90;;
17528;SDS011;8882;53.192;8.184;2024-03-23T12:51:32;3.10;;;0.97;;
17528;SDS011;8882;53.192;8.184;2024-03-23T12:53:58;1.73;;;1.43;;
17528;SDS011;8882;53.192;8.184;2024-03-23T12:56:23;2.57;;;0.97;;
17528;SDS011;8882;53.192;8.184;2024-03-23T12:58:49;1.63;;;0.90;;
17528;SDS011;8882;53.192;8.184;2024-03-23T13:01:16;2.67;;;1.27;;
17528;SDS011;8882;53.192;8.184;2024-03-23T13:03:42;3.87;;;1.10;;
17528;SDS011;8882;53.192;8.184;2024-03-23T13:06:09;2.60;;;1.50;;
17528;SDS011;8882;53.192;8.184;2024-03-23T13:08:35;1.83;;;1.10;;
17528;SDS011;8882;53.192;8.184;2024-03-23T13:11:00;3.33;;;1.07;;
17528;SDS011;8882;53.192;8.184;2024-03-23T13:13:26;2.53;;;1.03;;
17528;SDS011;8882;53.192;8.184;2024-03-23T13:15:51;4.87;;;1.13;;
17528;SDS011;8882;53.192;8.184;2024-03-23T13:18:17;4.07;;;1.50;;
17528;SDS011;8882;53.192;8.184;2024-03-23T13:20:43;4.03;;;1.20;;
17528;SDS011;8882;53.192;8.184;2024-03-23T13:23:09;3.63;;;1.00;;
17528;SDS011;8882;53.192;8.184;2024-03-23T13:25:34;3.63;;;1.37;;
17528;SDS011;8882;53.192;8.184;2024-03-23T13:28:00;2.43;;;1.20;;
17528;SDS011;8882;53.192;8.184;2024-03-23T13:30:26;4.17;;;1.00;;
17528;SDS011;8882;53.192;8.184;2024-03-23T13:32:51;5.17;;;1.00;;
17528;SDS011;8882;53.192;8.184;2024-03-23T13:35:17;3.80;;;1.10;;
17528;SDS011;8882;53.192;8.184;2024-03-23T13:37:43;3.40;;;1.17;;
17528;SDS011;8882;53.192;8.184;2024-03-23T13:40:08;4.03;;;1.10;;
17528;SDS011;8882;53.192;8.184;2024-03-23T13:42:34;3.93;;;1.03;;
17528;SDS011;8882;53.192;8.184;2024-03-23T13:45:00;2.47;;;1.07;;
17528;SDS011;8882;53.192;8.184;2024-03-23T13:47:25;2.17;;;1.30;;
17528;SDS011;8882;53.192;8.184;2024-03-23T13:49:51;5.37;;;1.47;;
17528;SDS011;8882;53.192;8.184;2024-03-23T13:52:16;2.77;;;1.23;;
17528;SDS011;8882;53.192;8.184;2024-03-23T13:54:43;2.20;;;1.37;;
17528;SDS011;8882;53.192;8.184;2024-03-23T13:57:11;6.83;;;1.60;;
17528;SDS011;8882;53.192;8.184;2024-03-23T13:59:36;3.77;;;1.20;;
17528;SDS011;8882;53.192;8.184;2024-03-23T14:02:02;5.17;;;1.10;;
17528;SDS011;8882;53.192;8.184;2024-03-23T14:04:27;4.50;;;1.00;;
17528;SDS011;8882;53.192;8.184;2024-03-23T14:06:53;3.07;;;1.47;;
17528;SDS011;8882;53.192;8.184;2024-03-23T14:09:19;4.33;;;1.30;;
17528;SDS011;8882;53.192;8.184;2024-03-23T14:11:47;4.70;;;1.43;;
17528;SDS011;8882;53.192;8.184;2024-03-23T14:14:13;5.40;;;1.10;;
17528;SDS011;8882;53.192;8.184;2024-03-23T14:16:41;2.77;;;0.93;;
17528;SDS011;8882;53.192;8.184;2024-03-23T14:19:10;3.27;;;1.20;;
17528;SDS011;8882;53.192;8.184;2024-03-23T14:21:35;2.90;;;1.33;;
17528;SDS011;8882;53.192;8.184;2024-03-23T14:24:01;5.17;;;1.30;;
17528;SDS011;8882;53.192;8.184;2024-03-23T14:26:27;7.90;;;1.50;;
17528;SDS011;8882;53.192;8.184;2024-03-23T14:28:53;4.60;;;1.10;;
17528;SDS011;8882;53.192;8.184;2024-03-23T14:31:18;3.63;;;1.10;;
17528;SDS011;8882;53.192;8.184;2024-03-23T14:33:44;5.70;;;1.27;;
17528;SDS011;8882;53.192;8.184;2024-03-23T14:36:13;5.13;;;1.10;;
17528;SDS011;8882;53.192;8.184;2024-03-23T14:38:39;1.60;;;0.70;;
17528;SDS011;8882;53.192;8.184;2024-03-23T14:41:05;3.20;;;1.00;;
17528;SDS011;8882;53.192;8.184;2024-03-23T14:43:30;3.03;;;0.90;;
17528;SDS011;8882;53.192;8.184;2024-03-23T14:46:15;2.83;;;1.03;;
17528;SDS011;8882;53.192;8.184;2024-03-23T14:48:42;6.13;;;1.33;;
17528;SDS011;8882;53.192;8.184;2024-03-23T14:51:09;2.63;;;0.73;;
17528;SDS011;8882;53.192;8.184;2024-03-23T14:53:35;5.30;;;1.10;;
17528;SDS011;8882;53.192;8.184;2024-03-23T14:56:05;4.07;;;1.17;;
17528;SDS011;8882;53.192;8.184;2024-03-23T14:58:31;2.00;;;1.10;;
17528;SDS011;8882;53.192;8.184;2024-03-23T15:01:00;6.63;;;1.23;;
17528;SDS011;8882;53.192;8.184;2024-03-23T15:03:29;7.33;;;1.20;;
17528;SDS011;8882;53.192;8.184;2024-03-23T15:05:56;3.17;;;1.77;;
17528;SDS011;8882;53.192;8.184;2024-03-23T15:08:23;3.13;;;1.00;;
17528;SDS011;8882;53.192;8.184;2024-03-23T15:10:49;2.93;;;1.13;;
17528;SDS011;8882;53.192;8.184;2024-03-23T15:13:15;2.23;;;1.03;;
17528;SDS011;8882;53.192;8.184;2024-03-23T15:15:41;0.80;;;0.80;;
17528;SDS011;8882;53.192;8.184;2024-03-23T15:18:09;3.10;;;1.13;;
17528;SDS011;8882;53.192;8.184;2024-03-23T15:20:37;1.37;;;0.80;;
17528;SDS011;8882;53.192;8.184;2024-03-23T15:23:03;3.73;;;1.13;;
17528;SDS011;8882;53.192;8.184;2024-03-23T15:25:28;4.33;;;1.40;;
17528;SDS011;8882;53.192;8.184;2024-03-23T15:27:54;3.73;;;1.40;;
17528;SDS011;8882;53.192;8.184;2024-03-23T15:30:20;3.77;;;1.40;;
17528;SDS011;8882;53.192;8.184;2024-03-23T15:32:45;8.23;;;2.00;;
17528;SDS011;8882;53.192;8.184;2024-03-23T15:35:12;7.10;;;1.60;;
17528;SDS011;8882;53.192;8.184;2024-03-23T15:37:37;4.10;;;1.33;;
17528;SDS011;8882;53.192;8.184;2024-03-23T15:40:04;2.50;;;1.47;;
17528;SDS011;8882;53.192;8.184;2024-03-23T15:42:30;5.47;;;1.20;;
17528;SDS011;8882;53.192;8.184;2024-03-23T15:44:56;2.83;;;1.37;;
17528;SDS011;8882;53.192;8.184;2024-03-23T15:47:21;2.77;;;1.47;;
17528;SDS011;8882;53.192;8.184;2024-03-23T15:49:48;7.30;;;1.73;;
17528;SDS011;8882;53.192;8.184;2024-03-23T15:52:14;7.33;;;1.57;;
17528;SDS011;8882;53.192;8.184;2024-03-23T15:54:40;3.40;;;1.20;;
17528;SDS011;8882;53.192;8.184;2024-03-23T15:57:05;4.43;;;1.50;;
17528;SDS011;8882;53.192;8.184;2024-03-23T15:59:32;3.80;;;1.43;;
17528;SDS011;8882;53.192;8.184;2024-03-23T16:01:57;3.77;;;1.80;;